createdAt,value
2018-10-19T00:01:16.295Z,81.53
2018-10-19T00:03:44.540Z,81.49
2018-10-19T00:06:12.789Z,80.40
2018-10-19T00:08:41.045Z,80.13
2018-10-19T00:11:09.429Z,80.65
2018-10-19T00:13:37.565Z,80.84
2018-10-19T00:16:05.779Z,80.70
2018-10-19T00:18:34.378Z,80.30
2018-10-19T00:21:02.661Z,79.86
2018-10-19T00:23:30.817Z,80.67
2018-10-19T00:25:59.079Z,81.28
2018-10-19T00:28:27.403Z,80.89
2018-10-19T00:30:55.707Z,80.69
2018-10-19T00:33:23.974Z,80.22
2018-10-19T00:35:53.316Z,80.16
2018-10-19T00:38:21.601Z,81.16
2018-10-19T00:40:49.869Z,79.82
2018-10-19T00:43:18.110Z,79.53
2018-10-19T00:45:47.167Z,81.72
2018-10-19T00:48:17.520Z,80.72
2018-10-19T00:50:45.793Z,80.96
2018-10-19T00:53:14.472Z,80.14
2018-10-19T00:55:42.707Z,81.02
2018-10-19T00:58:11.026Z,81.64
2018-10-19T01:00:40.563Z,79.55
2018-10-19T01:03:09.374Z,81.86
2018-10-19T01:05:38.504Z,80.61
2018-10-19T01:08:07.607Z,80.30
2018-10-19T01:10:35.829Z,79.84
2018-10-19T01:13:04.096Z,80.36
2018-10-19T01:15:32.338Z,81.33
2018-10-19T01:18:00.685Z,80.93
2018-10-19T01:20:29.029Z,81.09
2018-10-19T01:22:57.347Z,80.30
2018-10-19T01:25:25.598Z,81.01
2018-10-19T01:27:54.009Z,81.26
2018-10-19T01:30:22.258Z,80.63
2018-10-19T01:32:50.490Z,80.29
2018-10-19T01:35:18.736Z,80.26
2018-10-19T01:37:47.795Z,80.54
2018-10-19T01:40:16.057Z,80.98
2018-10-19T01:42:44.306Z,80.11
2018-10-19T01:45:13.279Z,80.30
2018-10-19T01:47:42.296Z,79.92
2018-10-19T01:50:11.420Z,79.31
2018-10-19T01:52:40.416Z,79.72
2018-10-19T01:55:08.678Z,80.29
2018-10-19T01:57:36.997Z,79.92
2018-10-19T02:00:08.542Z,80.60
2018-10-19T02:02:36.766Z,81.13
2018-10-19T02:05:05.091Z,80.93
2018-10-19T02:07:33.346Z,81.01
2018-10-19T02:10:01.665Z,81.01
2018-10-19T02:12:29.930Z,80.60
2018-10-19T02:14:58.257Z,80.82
2018-10-19T02:17:26.485Z,81.25
2018-10-19T02:19:54.724Z,80.78
2018-10-19T02:22:22.940Z,80.29
2018-10-19T02:24:51.164Z,80.22
2018-10-19T02:27:19.405Z,80.69
2018-10-19T02:29:48.000Z,80.60
2018-10-19T02:32:17.349Z,81.16
2018-10-19T02:34:45.621Z,81.66
2018-10-19T02:37:13.846Z,81.01
2018-10-19T02:39:42.052Z,80.87
2018-10-19T02:42:10.332Z,81.81
2018-10-19T02:44:38.551Z,81.81
2018-10-19T02:47:12.487Z,80.67
2018-10-19T02:49:40.574Z,80.34
2018-10-19T02:52:08.814Z,81.03
2018-10-19T02:54:37.089Z,82.25
2018-10-19T02:57:05.525Z,81.75
2018-10-19T02:59:33.817Z,80.58
2018-10-19T03:02:02.069Z,81.01
2018-10-19T03:04:30.329Z,81.27
2018-10-19T03:06:58.580Z,80.83
2018-10-19T03:09:26.864Z,81.99
2018-10-19T03:11:55.080Z,81.36
2018-10-19T03:14:25.432Z,81.74
2018-10-19T03:16:53.662Z,81.67
2018-10-19T03:19:21.914Z,81.07
2018-10-19T03:21:50.136Z,80.44
2018-10-19T03:24:18.401Z,81.93
2018-10-19T03:26:46.641Z,83.19
2018-10-19T03:29:17.382Z,82.85
2018-10-19T03:31:45.866Z,82.74
2018-10-19T03:34:14.135Z,82.36
2018-10-19T03:36:42.352Z,81.91
2018-10-19T03:39:10.723Z,82.13
2018-10-19T03:41:39.337Z,82.36
2018-10-19T03:44:07.617Z,82.45
2018-10-19T03:46:37.064Z,83.16
2018-10-19T03:49:05.923Z,83.28
2018-10-19T03:51:34.149Z,83.47
2018-10-19T03:54:02.406Z,83.35
2018-10-19T03:56:30.776Z,83.83
2018-10-19T03:58:59.083Z,82.84
2018-10-19T04:01:27.254Z,83.26
2018-10-19T04:03:55.475Z,82.94
2018-10-19T04:06:23.734Z,82.85
2018-10-19T04:08:51.986Z,83.43
2018-10-19T04:11:20.196Z,82.58
2018-10-19T04:13:49.877Z,82.44
2018-10-19T04:16:18.112Z,83.07
2018-10-19T04:18:46.349Z,81.62
2018-10-19T04:21:14.662Z,82.66
2018-10-19T04:23:42.797Z,82.23
2018-10-19T04:26:11.074Z,82.43
2018-10-19T04:28:39.357Z,82.25
2018-10-19T04:31:07.603Z,82.48
2018-10-19T04:33:35.909Z,81.59
2018-10-19T04:36:04.161Z,82.46
2018-10-19T04:38:32.369Z,83.03
2018-10-19T04:41:00.648Z,82.60
2018-10-19T04:43:28.855Z,83.68
2018-10-19T04:45:57.134Z,82.95
2018-10-19T04:48:25.721Z,82.61
2018-10-19T04:50:53.994Z,83.24
2018-10-19T04:53:22.227Z,84.52
2018-10-19T04:55:50.502Z,83.49
2018-10-19T04:58:18.723Z,82.94
2018-10-19T05:00:46.954Z,83.15
2018-10-19T05:03:15.249Z,83.43
2018-10-19T05:05:43.451Z,83.29
2018-10-19T05:08:11.717Z,82.91
2018-10-19T05:10:49.448Z,83.93
2018-10-19T05:13:17.746Z,84.95
2018-10-19T05:15:46.006Z,84.17
2018-10-19T05:18:14.249Z,83.68
2018-10-19T05:20:42.528Z,83.74
2018-10-19T05:23:10.845Z,83.82
2018-10-19T05:25:39.078Z,84.28
2018-10-19T05:28:07.324Z,85.55
2018-10-19T05:30:35.644Z,83.64
2018-10-19T05:33:03.996Z,83.89
2018-10-19T05:35:32.173Z,82.78
2018-10-19T05:38:00.470Z,83.08
2018-10-19T05:40:28.661Z,82.88
2018-10-19T05:42:56.878Z,83.31
2018-10-19T05:45:25.141Z,83.54
2018-10-19T05:47:58.918Z,83.20
2018-10-19T05:50:27.128Z,84.47
2018-10-19T05:52:55.373Z,84.59
2018-10-19T05:55:23.613Z,84.59
2018-10-19T05:57:51.912Z,83.90
2018-10-19T06:03:16.315Z,84.90
2018-10-19T06:05:44.828Z,84.97
2018-10-19T06:08:13.118Z,84.29
2018-10-19T06:10:41.272Z,83.24
2018-10-19T06:13:09.497Z,83.22
2018-10-19T06:15:37.933Z,83.89
2018-10-19T06:18:06.178Z,83.60
2018-10-19T06:20:34.474Z,84.02
2018-10-19T06:23:02.760Z,84.57
2018-10-19T06:25:30.950Z,85.51
2018-10-19T06:27:59.178Z,84.78
2018-10-19T06:30:27.425Z,84.18
2018-10-19T06:32:56.710Z,85.13
2018-10-19T06:35:25.361Z,84.89
2018-10-19T06:37:53.590Z,85.18
2018-10-19T06:40:27.460Z,86.13
2018-10-19T06:42:55.694Z,86.08
2018-10-19T06:45:23.968Z,85.75
2018-10-19T06:47:52.197Z,86.21
2018-10-19T06:50:20.790Z,85.98
2018-10-19T06:52:48.996Z,84.80
2018-10-19T06:55:19.079Z,85.68
2018-10-19T06:57:47.339Z,85.80
2018-10-19T07:00:16.264Z,86.41
2018-10-19T07:02:44.511Z,85.95
2018-10-19T07:05:12.820Z,85.86
2018-10-19T07:07:41.061Z,85.50
2018-10-19T07:10:10.219Z,87.00
2018-10-19T07:12:38.580Z,85.80
2018-10-19T07:15:07.847Z,85.97
2018-10-19T07:17:36.292Z,85.97
2018-10-19T07:20:05.365Z,86.21
2018-10-19T07:22:33.585Z,86.40
2018-10-19T07:25:02.147Z,86.14
2018-10-19T07:27:30.535Z,86.34
2018-10-19T07:29:59.413Z,87.28
2018-10-19T07:35:10.197Z,88.05
2018-10-19T07:37:38.381Z,86.42
2018-10-19T07:40:06.965Z,87.27
2018-10-19T07:42:35.347Z,86.50
2018-10-19T07:45:04.817Z,86.53
2018-10-19T07:47:34.024Z,85.65
2018-10-19T07:50:02.256Z,84.83
2018-10-19T07:52:30.497Z,84.17
2018-10-19T07:54:58.729Z,84.08
2018-10-19T07:57:26.998Z,84.97
2018-10-19T07:59:55.383Z,85.19
2018-10-19T08:02:23.721Z,89.06
2018-10-19T08:04:52.077Z,87.88
2018-10-19T08:07:20.382Z,88.97
2018-10-19T08:09:48.680Z,87.20
2018-10-19T08:12:16.933Z,87.82
2018-10-19T08:14:45.189Z,87.14
2018-10-19T08:17:13.482Z,89.21
2018-10-19T08:19:41.662Z,87.20
2018-10-19T08:22:09.911Z,86.16
2018-10-19T08:24:38.203Z,87.21
2018-10-19T08:27:06.734Z,86.75
2018-10-19T08:29:34.930Z,86.92
2018-10-19T08:32:03.316Z,86.04
2018-10-19T08:34:31.614Z,86.64
2018-10-19T08:36:59.888Z,84.29
2018-10-19T08:39:28.138Z,84.44
2018-10-19T08:41:56.533Z,83.83
2018-10-19T08:44:24.781Z,85.24
2018-10-19T08:46:53.059Z,85.26
2018-10-19T08:49:21.706Z,85.80
2018-10-19T08:51:50.030Z,84.52
2018-10-19T08:54:18.297Z,83.38
2018-10-19T08:56:46.648Z,82.94
2018-10-19T08:59:18.744Z,83.54
2018-10-19T09:01:46.928Z,83.12
2018-10-19T09:04:15.288Z,83.99
2018-10-19T09:06:43.466Z,83.47
2018-10-19T09:09:12.099Z,83.26
2018-10-19T09:11:40.728Z,82.45
2018-10-19T09:14:20.345Z,81.68
2018-10-19T09:16:49.174Z,81.82
2018-10-19T09:19:17.650Z,81.88
2018-10-19T09:21:45.885Z,80.98
2018-10-19T09:24:14.149Z,80.35
2018-10-19T09:26:43.475Z,80.08
2018-10-19T09:29:12.055Z,79.91
2018-10-19T09:31:40.266Z,79.02
2018-10-19T09:34:09.605Z,80.33
2018-10-19T09:36:37.965Z,79.54
2018-10-19T09:39:10.399Z,78.70
2018-10-19T09:41:38.558Z,78.08
2018-10-19T09:44:07.118Z,77.47
2018-10-19T09:46:38.121Z,77.58
2018-10-19T09:49:06.634Z,76.63
2018-10-19T09:51:34.916Z,76.89
2018-10-19T09:54:03.158Z,77.86
2018-10-19T09:56:31.441Z,77.34
2018-10-19T09:58:59.689Z,76.25
2018-10-19T10:01:28.542Z,77.43
2018-10-19T10:03:57.116Z,77.90
2018-10-19T10:06:25.391Z,77.20
2018-10-19T10:08:53.670Z,75.66
2018-10-19T10:11:21.950Z,75.65
2018-10-19T10:13:50.447Z,74.82
2018-10-19T10:16:22.614Z,75.00
2018-10-19T10:18:50.868Z,73.83
2018-10-19T10:21:19.164Z,73.47
2018-10-19T10:23:47.426Z,73.93
2018-10-19T10:26:15.730Z,73.44
2018-10-19T10:28:44.059Z,72.02
2018-10-19T10:31:12.423Z,74.20
2018-10-19T10:33:40.765Z,72.78
2018-10-19T10:36:09.552Z,72.79
2018-10-19T10:38:37.899Z,71.46
2018-10-19T10:41:06.253Z,71.10
2018-10-19T10:43:34.477Z,70.88
2018-10-19T10:46:02.732Z,70.34
2018-10-19T10:48:30.989Z,69.87
2018-10-19T10:50:59.385Z,71.12
2018-10-19T10:53:27.635Z,70.83
2018-10-19T10:55:55.860Z,70.50
2018-10-19T10:58:24.103Z,69.44
2018-10-19T11:00:52.358Z,71.06
2018-10-19T11:03:20.681Z,71.05
2018-10-19T11:05:54.663Z,70.46
2018-10-19T11:08:22.873Z,71.20
2018-10-19T11:10:51.105Z,71.36
2018-10-19T11:13:19.331Z,71.01
2018-10-19T11:15:47.641Z,71.40
2018-10-19T11:18:15.893Z,70.74
2018-10-19T11:20:44.156Z,70.10
2018-10-19T11:23:12.409Z,69.09
2018-10-19T11:25:40.645Z,68.88
2018-10-19T11:28:08.938Z,68.59
2018-10-19T11:30:37.219Z,68.48
2018-10-19T11:33:05.440Z,69.24
2018-10-19T11:35:33.695Z,67.82
2018-10-19T11:38:02.056Z,68.76
2018-10-19T11:40:33.602Z,68.31
2018-10-19T11:43:01.895Z,68.23
2018-10-19T11:45:31.421Z,66.75
2018-10-19T11:47:59.709Z,67.11
2018-10-19T11:50:29.254Z,66.69
2018-10-19T11:52:57.491Z,66.73
2018-10-19T11:55:25.723Z,66.04
2018-10-19T11:57:54.201Z,66.69
2018-10-19T12:00:22.456Z,66.58
2018-10-19T12:02:50.743Z,66.59
2018-10-19T12:05:19.114Z,66.31
2018-10-19T12:07:47.456Z,66.32
2018-10-19T12:10:15.832Z,67.45
2018-10-19T12:12:44.404Z,66.45
2018-10-19T12:15:14.839Z,67.00
2018-10-19T12:17:43.754Z,67.27
2018-10-19T12:20:16.613Z,67.81
2018-10-19T12:22:44.893Z,65.99
2018-10-19T12:25:14.136Z,66.48
2018-10-19T12:27:42.594Z,67.40
2018-10-19T12:30:11.430Z,66.62
2018-10-19T12:32:39.847Z,66.51
2018-10-19T12:35:09.665Z,66.44
2018-10-19T12:37:38.141Z,67.27
2018-10-19T12:40:07.270Z,66.58
2018-10-19T12:42:35.994Z,65.97
2018-10-19T12:45:04.500Z,65.63
2018-10-19T12:47:37.912Z,66.25
2018-10-19T12:50:06.717Z,65.52
2018-10-19T12:52:34.982Z,65.78
2018-10-19T12:55:03.321Z,66.46
2018-10-19T12:57:31.552Z,65.58
2018-10-19T12:59:59.693Z,65.13
2018-10-19T13:02:27.933Z,64.95
2018-10-19T13:04:56.192Z,64.84
2018-10-19T13:07:24.460Z,65.13
2018-10-19T13:09:52.776Z,64.66
2018-10-19T13:12:20.996Z,64.12
2018-10-19T13:14:49.225Z,65.03
2018-10-19T13:17:17.489Z,64.77
2018-10-19T13:19:45.799Z,64.05
2018-10-19T13:22:14.038Z,64.79
2018-10-19T13:24:42.293Z,64.76
2018-10-19T13:27:10.556Z,64.92
2018-10-19T13:29:38.774Z,63.94
2018-10-19T13:32:07.113Z,65.49
2018-10-19T13:34:35.358Z,64.60
2018-10-19T13:37:03.578Z,64.49
2018-10-19T13:39:31.919Z,65.62
2018-10-19T13:42:00.155Z,65.78
2018-10-19T13:44:28.398Z,64.89
2018-10-19T13:46:56.778Z,64.41
2018-10-19T13:49:24.949Z,64.51
2018-10-19T13:51:53.186Z,64.81
2018-10-19T13:54:21.392Z,63.17
2018-10-19T13:56:49.753Z,63.19
2018-10-19T13:59:18.088Z,64.10
2018-10-19T14:01:46.300Z,63.42
2018-10-19T14:04:14.505Z,63.30
2018-10-19T14:06:42.740Z,63.29
2018-10-19T14:09:11.347Z,63.40
2018-10-19T14:11:40.183Z,62.90
2018-10-19T14:14:08.428Z,63.88
2018-10-19T14:16:36.713Z,63.76
2018-10-19T14:19:05.004Z,62.75
2018-10-19T14:21:33.226Z,62.70
2018-10-19T14:24:01.478Z,62.40
2018-10-19T14:26:29.745Z,62.62
2018-10-19T14:28:58.052Z,63.43
2018-10-19T14:31:27.363Z,62.04
2018-10-19T14:33:59.965Z,63.90
2018-10-19T14:36:28.350Z,64.66
2018-10-19T14:38:56.769Z,64.41
2018-10-19T14:41:26.026Z,65.81
2018-10-19T14:43:56.382Z,64.94
2018-10-19T14:46:25.699Z,65.00
2018-10-19T14:48:54.054Z,65.92
2018-10-19T14:51:23.433Z,65.53
2018-10-19T14:53:52.881Z,66.67
2018-10-19T14:56:21.153Z,65.93
2018-10-19T14:58:49.395Z,65.52
2018-10-19T15:01:17.648Z,65.53
2018-10-19T15:03:49.617Z,66.15
2018-10-19T15:06:17.926Z,65.05
2018-10-19T15:08:46.197Z,65.91
2018-10-19T15:11:14.796Z,65.82
2018-10-19T15:13:42.772Z,65.58
2018-10-19T15:16:11.028Z,66.50
2018-10-19T15:18:39.567Z,66.28
2018-10-19T15:21:07.795Z,66.06
2018-10-19T15:23:39.818Z,66.64
2018-10-19T15:26:08.040Z,66.86
2018-10-19T15:28:36.294Z,66.54
2018-10-19T15:31:05.850Z,66.64
2018-10-19T15:33:34.126Z,66.81
2018-10-19T15:36:02.485Z,67.01
2018-10-19T15:38:30.664Z,66.84
2018-10-19T15:40:58.884Z,66.49
2018-10-19T15:43:27.097Z,67.34
2018-10-19T15:45:55.327Z,66.96
2018-10-19T15:48:23.578Z,67.79
2018-10-19T15:50:51.812Z,66.89
2018-10-19T15:53:20.045Z,67.59
2018-10-19T15:55:48.323Z,67.24
2018-10-19T15:58:16.586Z,67.83
2018-10-19T16:00:45.159Z,68.50
2018-10-19T16:03:13.466Z,68.87
2018-10-19T16:05:41.689Z,68.85
2018-10-19T16:08:09.949Z,68.99
2018-10-19T16:10:38.181Z,69.61
2018-10-19T16:13:06.411Z,70.09
2018-10-19T16:15:34.717Z,69.57
2018-10-19T16:18:02.993Z,70.19
2018-10-19T16:20:32.313Z,70.01
2018-10-19T16:23:01.663Z,69.77
2018-10-19T16:25:31.021Z,69.70
2018-10-19T16:28:00.335Z,70.23
2018-10-19T16:30:28.644Z,71.20
2018-10-19T16:32:56.960Z,71.37
2018-10-19T16:35:25.145Z,71.67
2018-10-19T16:37:53.405Z,71.72
2018-10-19T16:40:21.650Z,71.77
2018-10-19T16:42:49.865Z,71.24
2018-10-19T16:45:18.411Z,72.76
2018-10-19T16:47:46.675Z,72.55
2018-10-19T16:50:14.912Z,72.58
2018-10-19T16:52:43.270Z,73.46
2018-10-19T16:55:11.354Z,72.33
2018-10-19T16:57:40.609Z,72.07
2018-10-19T17:00:09.748Z,72.63
2018-10-19T17:02:42.011Z,73.16
2018-10-19T17:05:16.270Z,74.09
2018-10-19T17:07:44.462Z,74.39
2018-10-19T17:10:12.733Z,74.07
2018-10-19T17:12:41.064Z,74.62
2018-10-19T17:15:09.327Z,74.57
2018-10-19T17:17:37.609Z,73.86
2018-10-19T17:20:07.226Z,73.59
2018-10-19T17:22:35.757Z,73.99
2018-10-19T17:25:04.524Z,75.48
2018-10-19T17:27:33.041Z,74.12
2018-10-19T17:30:03.508Z,75.10
2018-10-19T17:32:31.802Z,75.01
2018-10-19T17:35:01.171Z,75.24
2018-10-19T17:37:29.418Z,76.75
2018-10-19T17:39:57.714Z,75.77
2018-10-19T17:42:26.077Z,75.50
2018-10-19T17:44:58.503Z,76.35
2018-10-19T17:47:27.074Z,76.08
2018-10-19T17:49:55.293Z,76.97
2018-10-19T17:52:24.729Z,75.30
2018-10-19T17:54:53.038Z,75.80
2018-10-19T17:57:21.285Z,76.24
2018-10-19T17:59:49.628Z,76.70
2018-10-19T18:02:17.995Z,78.29
2018-10-19T18:04:47.543Z,77.23
2018-10-19T18:07:15.857Z,78.43
2018-10-19T18:09:44.145Z,78.07
2018-10-19T18:12:12.415Z,78.39
2018-10-19T18:14:40.626Z,78.07
2018-10-19T18:17:09.157Z,77.93
2018-10-19T18:19:37.392Z,77.82
2018-10-19T18:22:08.060Z,78.33
2018-10-19T18:24:36.146Z,78.73
2018-10-19T18:27:05.537Z,79.49
2018-10-19T18:29:33.909Z,79.93
2018-10-19T18:32:02.332Z,78.89
2018-10-19T18:36:59.007Z,78.81
2018-10-19T18:39:27.364Z,79.66
2018-10-19T18:41:55.958Z,80.03
2018-10-19T18:44:24.153Z,79.43
2018-10-19T18:46:53.440Z,79.02
2018-10-19T18:49:26.732Z,79.09
2018-10-19T18:51:55.038Z,78.30
2018-10-19T18:54:23.301Z,78.68
2018-10-19T18:56:53.613Z,79.45
2018-10-19T18:59:25.260Z,80.10
2018-10-19T19:01:53.577Z,80.59
2018-10-19T19:04:21.834Z,79.75
2018-10-19T19:06:50.124Z,80.02
2018-10-19T19:09:18.490Z,80.24
2018-10-19T19:11:47.826Z,80.24
2018-10-19T19:14:20.089Z,79.25
2018-10-19T19:16:48.332Z,79.35
2018-10-19T19:19:16.573Z,79.31
2018-10-19T19:21:46.845Z,79.06
2018-10-19T19:24:21.474Z,79.82
2018-10-19T19:26:51.774Z,79.41
2018-10-19T19:29:20.151Z,79.55
2018-10-19T19:31:49.504Z,78.93
2018-10-19T19:34:18.746Z,78.17
2018-10-19T19:36:47.126Z,78.67
2018-10-19T19:39:15.380Z,78.74
2018-10-19T19:41:48.806Z,78.85
2018-10-19T19:44:18.191Z,79.31
2018-10-19T19:46:46.449Z,79.46
2018-10-19T19:49:22.001Z,79.90
2018-10-19T19:51:53.497Z,80.14
2018-10-19T19:54:21.893Z,79.86
2018-10-19T19:56:50.234Z,79.82
2018-10-19T19:59:18.558Z,79.79
2018-10-19T20:01:46.946Z,79.77
2018-10-19T20:04:15.298Z,78.84
2018-10-19T20:06:45.526Z,78.66
2018-10-19T20:09:13.870Z,79.87
2018-10-19T20:11:46.561Z,80.25
2018-10-19T20:14:19.325Z,80.37
2018-10-19T20:16:47.553Z,79.95
2018-10-19T20:19:16.805Z,79.57
2018-10-19T20:21:47.090Z,80.75
2018-10-19T20:24:17.388Z,79.87
2018-10-19T20:26:45.634Z,79.91
2018-10-19T20:29:14.995Z,81.18
2018-10-19T20:31:48.481Z,81.01
2018-10-19T20:34:17.805Z,80.19
2018-10-19T20:36:46.062Z,79.37
2018-10-19T20:39:16.443Z,80.07
2018-10-19T20:41:49.265Z,80.30
2018-10-19T20:44:18.601Z,79.36
2018-10-19T20:46:46.801Z,80.19
2018-10-19T20:49:15.081Z,81.19
2018-10-19T20:51:48.873Z,79.97
2018-10-19T20:54:18.165Z,80.21
2018-10-19T20:56:48.505Z,80.44
2018-10-19T20:59:16.850Z,80.24
2018-10-19T21:01:45.080Z,80.73
2018-10-19T21:04:17.204Z,79.80
2018-10-19T21:06:46.510Z,79.07
2018-10-19T21:09:14.765Z,79.65
2018-10-19T21:11:45.018Z,81.07
2018-10-19T21:14:15.347Z,80.14
2018-10-19T21:16:48.316Z,81.89
2018-10-19T21:19:16.657Z,80.73
2018-10-19T21:21:44.875Z,80.34
2018-10-19T21:24:13.096Z,79.98
2018-10-19T21:26:41.467Z,79.36
2018-10-19T21:29:09.958Z,80.51
2018-10-19T21:31:38.241Z,81.71
2018-10-19T21:34:11.793Z,80.80
2018-10-19T21:36:43.728Z,81.36
2018-10-19T21:39:12.838Z,81.02
2018-10-19T21:41:41.073Z,80.05
2018-10-19T21:44:09.378Z,81.04
2018-10-19T21:46:38.775Z,80.68
2018-10-19T21:49:08.099Z,80.84
2018-10-19T21:51:36.406Z,80.74
2018-10-19T21:54:05.288Z,80.92
2018-10-19T21:56:33.526Z,79.95
2018-10-19T21:59:01.756Z,80.16
2018-10-19T22:01:32.091Z,81.52
2018-10-19T22:04:00.362Z,80.57
2018-10-19T22:06:29.726Z,81.38
2018-10-19T22:08:58.265Z,81.09
2018-10-19T22:11:26.494Z,81.02
2018-10-19T22:13:54.719Z,80.85
2018-10-19T22:16:25.077Z,81.59
2018-10-19T22:18:53.395Z,81.57
2018-10-19T22:21:21.620Z,83.06
2018-10-19T22:23:49.975Z,81.68
2018-10-19T22:26:19.417Z,81.13
2018-10-19T22:28:47.728Z,81.52
2018-10-19T22:31:18.066Z,81.62
2018-10-19T22:33:50.074Z,81.73
2018-10-19T22:36:18.361Z,82.11
2018-10-19T22:38:46.630Z,81.70
2018-10-19T22:41:15.006Z,81.33
2018-10-19T22:43:43.230Z,81.37
2018-10-19T22:46:11.475Z,80.93
2018-10-19T22:48:39.678Z,81.65
2018-10-19T22:51:07.924Z,82.09
2018-10-19T22:53:36.252Z,80.89
2018-10-19T22:56:05.689Z,81.29
2018-10-19T22:58:33.963Z,81.04
2018-10-19T23:01:02.304Z,81.68
2018-10-19T23:20:36.117Z,83.07
2018-10-19T23:23:04.452Z,83.34
2018-10-19T23:25:32.691Z,81.81
2018-10-19T23:28:00.921Z,81.19
2018-10-19T23:30:29.202Z,80.84
2018-10-19T23:32:57.379Z,81.47
2018-10-19T23:35:25.638Z,81.91
2018-10-19T23:37:54.070Z,82.32
2018-10-19T23:40:23.399Z,82.74
2018-10-19T23:42:52.750Z,82.29
2018-10-19T23:45:21.036Z,81.53
2018-10-19T23:47:49.321Z,81.37
2018-10-19T23:50:17.662Z,81.23
2018-10-19T23:52:45.967Z,82.51
2018-10-19T23:55:14.337Z,83.06
2018-10-19T23:57:42.527Z,82.03
